createdAt,value
2016-11-06T00:00:57.879Z,7.04
2016-11-06T00:01:57.844Z,7.04
2016-11-06T00:02:57.931Z,7.02
2016-11-06T00:03:57.847Z,6.95
2016-11-06T00:04:57.903Z,7.02
2016-11-06T00:05:58.007Z,7.07
2016-11-06T00:06:57.936Z,7.08
2016-11-06T00:07:57.939Z,7.12
2016-11-06T00:08:57.851Z,7.13
2016-11-06T00:09:57.908Z,7.01
2016-11-06T00:10:57.904Z,7.12
2016-11-06T00:11:57.870Z,7.15
2016-11-06T00:12:57.855Z,7.16
2016-11-06T00:13:57.835Z,7.09
2016-11-06T00:14:57.844Z,7.15
2016-11-06T00:15:57.888Z,7.05
2016-11-06T00:16:57.865Z,7.08
2016-11-06T00:17:57.862Z,7.12
2016-11-06T00:18:57.926Z,7.12
2016-11-06T00:19:57.983Z,7.23
2016-11-06T00:20:57.867Z,6.98
2016-11-06T00:21:57.861Z,7.09
2016-11-06T00:22:57.894Z,7.13
2016-11-06T00:23:57.887Z,7.09
2016-11-06T00:24:57.941Z,7.2
2016-11-06T00:25:57.915Z,7.17
2016-11-06T00:26:57.894Z,7.26
2016-11-06T00:27:57.880Z,7.15
2016-11-06T00:28:57.880Z,7.22
2016-11-06T00:29:57.894Z,7.2
2016-11-06T00:30:57.900Z,7.19
2016-11-06T00:31:57.873Z,7.2
2016-11-06T00:32:57.937Z,7.27
2016-11-06T00:33:57.912Z,7.17
2016-11-06T00:34:57.886Z,7.08
2016-11-06T00:35:57.929Z,7.15
2016-11-06T00:36:57.866Z,7.17
2016-11-06T00:37:58.072Z,7.09
2016-11-06T00:38:57.892Z,7.22
2016-11-06T00:39:57.904Z,7.16
2016-11-06T00:40:57.951Z,7.07
2016-11-06T00:41:57.917Z,7.13
2016-11-06T00:42:57.879Z,7.26
2016-11-06T00:43:57.923Z,7.16
2016-11-06T00:44:57.877Z,7.2
2016-11-06T00:45:57.927Z,7.09
2016-11-06T00:46:57.919Z,7.08
2016-11-06T00:47:57.927Z,7.15
2016-11-06T00:48:57.892Z,7.19
2016-11-06T00:49:57.919Z,7.08
2016-11-06T00:50:57.914Z,7.13
2016-11-06T00:51:57.856Z,7.08
2016-11-06T00:52:57.880Z,7.13
2016-11-06T00:53:57.873Z,6.97
2016-11-06T00:54:57.892Z,7.08
2016-11-06T00:55:57.974Z,7.09
2016-11-06T00:56:57.877Z,6.97
2016-11-06T00:57:57.868Z,7.01
2016-11-06T00:58:57.889Z,7.01
2016-11-06T00:59:57.896Z,6.98
2016-11-06T01:00:57.962Z,6.86
2016-11-06T01:01:58.039Z,6.91
2016-11-06T01:02:57.885Z,6.8
2016-11-06T01:03:57.935Z,6.95
2016-11-06T01:04:58.007Z,6.95
2016-11-06T01:05:57.918Z,6.79
2016-11-06T01:06:58.008Z,6.71
2016-11-06T01:07:57.948Z,6.8
2016-11-06T01:08:57.968Z,6.68
2016-11-06T01:09:57.899Z,6.68
2016-11-06T01:10:57.915Z,6.73
2016-11-06T01:11:57.918Z,6.53
2016-11-06T01:12:57.908Z,6.48
2016-11-06T01:13:57.900Z,6.48
2016-11-06T01:14:57.968Z,6.61
2016-11-06T01:15:58.750Z,6.48
2016-11-06T01:16:57.880Z,6.48
2016-11-06T01:17:57.895Z,6.61
2016-11-06T01:18:57.968Z,6.48
2016-11-06T01:19:57.895Z,6.56
2016-11-06T01:20:57.915Z,6.36
2016-11-06T01:21:57.921Z,6.33
2016-11-06T01:22:58.284Z,6.38
2016-11-06T01:23:57.953Z,6.44
2016-11-06T01:24:58.425Z,6.4
2016-11-06T01:25:57.966Z,6.44
2016-11-06T01:26:58.164Z,6.41
2016-11-06T01:27:57.966Z,6.48
2016-11-06T01:28:57.988Z,6.54
2016-11-06T01:29:58.347Z,6.46
2016-11-06T01:30:57.939Z,6.48
2016-11-06T01:31:57.946Z,6.53
2016-11-06T01:32:57.999Z,6.48
2016-11-06T01:33:57.970Z,6.51
2016-11-06T01:34:57.909Z,6.56
2016-11-06T01:35:57.954Z,6.51
2016-11-06T01:36:57.964Z,6.48
2016-11-06T01:37:58.033Z,6.54
2016-11-06T01:38:57.911Z,6.51
2016-11-06T01:39:57.892Z,6.62
2016-11-06T01:40:57.915Z,6.48
2016-11-06T01:41:57.901Z,6.59
2016-11-06T01:42:57.944Z,6.56
2016-11-06T01:43:58.004Z,6.71
2016-11-06T01:44:58.071Z,6.51
2016-11-06T01:45:58.071Z,6.62
2016-11-06T01:46:57.924Z,6.63
2016-11-06T01:47:57.914Z,6.73
2016-11-06T01:48:57.947Z,6.62
2016-11-06T01:49:57.973Z,6.66
2016-11-06T01:50:58.241Z,6.53
2016-11-06T01:51:57.980Z,6.8
2016-11-06T01:52:57.998Z,6.51
2016-11-06T01:53:58.184Z,6.68
2016-11-06T01:54:57.919Z,6.77
2016-11-06T01:55:58.009Z,6.68
2016-11-06T01:56:58.252Z,6.65
2016-11-06T01:57:57.989Z,6.71
2016-11-06T01:58:57.921Z,6.62
2016-11-06T01:59:57.992Z,6.65
2016-11-06T02:00:58.289Z,6.62
2016-11-06T02:01:57.903Z,6.72
2016-11-06T02:02:58.034Z,6.58
2016-11-06T02:03:58.200Z,6.59
2016-11-06T02:04:57.957Z,6.72
2016-11-06T02:05:57.945Z,6.72
2016-11-06T02:06:58.121Z,6.73
2016-11-06T02:07:57.935Z,6.62
2016-11-06T02:08:57.976Z,6.5
2016-11-06T02:09:58.094Z,6.63
2016-11-06T02:10:58.005Z,6.63
2016-11-06T02:11:58.035Z,6.77
2016-11-06T02:12:58.123Z,6.56
2016-11-06T02:13:57.946Z,6.56
2016-11-06T02:14:57.945Z,6.61
2016-11-06T02:15:57.969Z,6.53
2016-11-06T02:16:58.080Z,6.59
2016-11-06T02:17:58.188Z,6.65
2016-11-06T02:18:57.964Z,6.59
2016-11-06T02:19:58.003Z,6.61
2016-11-06T02:20:58.146Z,6.71
2016-11-06T02:21:57.987Z,6.56
2016-11-06T02:22:57.994Z,6.62
2016-11-06T02:23:58.007Z,6.53
2016-11-06T02:24:57.967Z,6.48
2016-11-06T02:25:58.006Z,6.43
2016-11-06T02:26:57.968Z,6.53
2016-11-06T02:27:58.477Z,6.43
2016-11-06T02:28:57.962Z,6.32
2016-11-06T02:29:58.067Z,6.3
2016-11-06T02:30:58.052Z,6.29
2016-11-06T02:31:58.140Z,6.16
2016-11-06T02:32:57.994Z,6.16
2016-11-06T02:33:57.953Z,6.09
2016-11-06T02:34:57.974Z,6.22
2016-11-06T02:35:57.995Z,6.04
2016-11-06T02:36:57.970Z,6.04
2016-11-06T02:37:58.163Z,5.91
2016-11-06T02:38:57.950Z,5.88
2016-11-06T02:39:58.392Z,5.91
2016-11-06T02:40:57.977Z,5.96
2016-11-06T02:41:58.354Z,5.75
2016-11-06T02:42:57.961Z,5.71
2016-11-06T02:43:58.288Z,5.81
2016-11-06T02:44:58.002Z,5.86
2016-11-06T02:45:57.977Z,5.81
2016-11-06T02:46:57.984Z,5.78
2016-11-06T02:47:58.386Z,5.53
2016-11-06T02:48:57.990Z,5.66
2016-11-06T02:49:58.775Z,5.6
2016-11-06T02:50:57.997Z,5.5
2016-11-06T02:51:57.942Z,5.57
2016-11-06T02:52:58.319Z,5.66
2016-11-06T02:53:58.168Z,5.32
2016-11-06T02:54:58.218Z,5.56
2016-11-06T02:55:58.224Z,5.56
2016-11-06T02:56:58.033Z,5.4
2016-11-06T02:57:58.148Z,5.32
2016-11-06T02:58:57.972Z,5.48
2016-11-06T02:59:57.972Z,5.37
2016-11-06T03:00:58.293Z,5.35
2016-11-06T03:01:58.149Z,5.38
2016-11-06T03:02:57.983Z,5.45
2016-11-06T03:03:57.956Z,5.31
2016-11-06T03:04:58.012Z,5.3
2016-11-06T03:05:57.982Z,5.3
2016-11-06T03:06:58.005Z,5.09
2016-11-06T03:07:58.014Z,5.32
2016-11-06T03:08:57.977Z,5.23
2016-11-06T03:09:58.008Z,5.25
2016-11-06T03:10:58.052Z,5.22
2016-11-06T03:11:57.993Z,5.12
2016-11-06T03:12:57.986Z,5.3
2016-11-06T03:13:57.987Z,5.22
2016-11-06T03:14:58.017Z,5.14
2016-11-06T03:15:58.016Z,5.13
2016-11-06T03:16:58.023Z,5.01
2016-11-06T03:17:58.029Z,5.07
2016-11-06T03:18:57.973Z,5.05
2016-11-06T03:19:58.015Z,5.05
2016-11-06T03:20:58.004Z,5.07
2016-11-06T03:21:58.049Z,5.17
2016-11-06T03:22:58.001Z,5.16
2016-11-06T03:23:58.058Z,5.13
2016-11-06T03:24:58.017Z,4.95
2016-11-06T03:25:57.999Z,5.05
2016-11-06T03:26:58.004Z,5.02
2016-11-06T03:27:57.989Z,4.98
2016-11-06T03:28:57.976Z,4.98
2016-11-06T03:29:58.005Z,4.99
2016-11-06T03:30:58.049Z,5.1
2016-11-06T03:31:58.035Z,4.99
2016-11-06T03:32:58.009Z,5.16
2016-11-06T03:33:58.048Z,4.96
2016-11-06T03:34:58.056Z,5.04
2016-11-06T03:35:58.031Z,5.16
2016-11-06T03:36:57.997Z,5.01
2016-11-06T03:37:58.047Z,5.13
2016-11-06T03:38:58.041Z,4.98
2016-11-06T03:39:58.002Z,4.86
2016-11-06T03:40:58.032Z,5.01
2016-11-06T03:41:58.046Z,5.01
2016-11-06T03:42:58.047Z,5.02
2016-11-06T03:43:58.019Z,5.05
2016-11-06T03:44:58.008Z,4.89
2016-11-06T03:45:58.073Z,4.91
2016-11-06T03:46:57.990Z,4.99
2016-11-06T03:47:58.075Z,5.01
2016-11-06T03:48:58.097Z,4.94
2016-11-06T03:49:58.096Z,4.86
2016-11-06T03:50:58.020Z,5.02
2016-11-06T03:51:58.074Z,4.91
2016-11-06T03:52:58.039Z,5.01
2016-11-06T03:53:58.021Z,4.98
2016-11-06T03:54:58.082Z,5.01
2016-11-06T03:55:58.037Z,5.04
2016-11-06T03:56:58.058Z,4.94
2016-11-06T03:57:58.045Z,4.98
2016-11-06T03:58:58.177Z,5.05
2016-11-06T03:59:58.132Z,4.95
2016-11-06T04:00:58.081Z,4.96
2016-11-06T04:01:58.040Z,4.92
2016-11-06T04:02:58.018Z,4.95
2016-11-06T04:03:58.030Z,5.02
2016-11-06T04:04:58.073Z,4.89
2016-11-06T04:05:58.063Z,5.01
2016-11-06T04:06:58.064Z,4.96
2016-11-06T04:07:58.009Z,4.92
2016-11-06T04:08:58.031Z,4.86
2016-11-06T04:09:58.031Z,4.95
2016-11-06T04:10:58.041Z,4.92
2016-11-06T04:11:58.060Z,4.92
2016-11-06T04:12:58.085Z,4.86
2016-11-06T04:13:58.044Z,4.73
2016-11-06T04:14:58.011Z,4.88
2016-11-06T04:15:58.078Z,4.95
2016-11-06T04:16:58.016Z,4.92
2016-11-06T04:17:58.039Z,4.91
2016-11-06T04:18:58.060Z,4.73
2016-11-06T04:19:58.076Z,4.88
2016-11-06T04:20:58.037Z,4.86
2016-11-06T04:21:58.041Z,4.75
2016-11-06T04:22:58.042Z,4.77
2016-11-06T04:23:58.044Z,4.77
2016-11-06T04:24:58.042Z,4.92
2016-11-06T04:25:58.077Z,5.01
2016-11-06T04:26:58.713Z,4.88
2016-11-06T04:27:58.083Z,4.89
2016-11-06T04:28:58.051Z,4.8
2016-11-06T04:29:58.079Z,4.79
2016-11-06T04:30:58.086Z,4.84
2016-11-06T04:31:58.067Z,4.92
2016-11-06T04:32:58.052Z,4.76
2016-11-06T04:33:58.090Z,4.89
2016-11-06T04:34:58.092Z,4.86
2016-11-06T04:35:58.066Z,4.95
2016-11-06T04:36:58.067Z,4.91
2016-11-06T04:37:58.068Z,4.92
2016-11-06T04:38:58.084Z,4.86
2016-11-06T04:39:58.044Z,4.73
2016-11-06T04:40:58.111Z,4.8
2016-11-06T04:41:58.070Z,4.92
2016-11-06T04:42:58.084Z,4.89
2016-11-06T04:43:58.019Z,4.76
2016-11-06T04:44:58.053Z,4.8
2016-11-06T04:45:58.060Z,4.59
2016-11-06T04:46:58.022Z,4.58
2016-11-06T04:47:58.057Z,4.7
2016-11-06T04:48:58.121Z,4.75
2016-11-06T04:49:58.113Z,4.69
2016-11-06T04:50:58.062Z,4.67
2016-11-06T04:51:58.090Z,4.65
2016-11-06T04:52:58.028Z,4.79
2016-11-06T04:53:58.083Z,4.65
2016-11-06T04:54:58.107Z,4.8
2016-11-06T04:55:58.080Z,4.69
2016-11-06T04:56:58.077Z,4.75
2016-11-06T04:57:58.084Z,4.73
2016-11-06T04:58:58.083Z,4.7
2016-11-06T04:59:58.104Z,4.8
2016-11-06T05:00:58.064Z,4.72
2016-11-06T05:01:58.147Z,4.69
2016-11-06T05:02:58.096Z,4.7
2016-11-06T05:03:58.101Z,4.94
2016-11-06T05:04:58.128Z,4.79
2016-11-06T05:05:58.129Z,4.77
2016-11-06T05:06:58.086Z,4.75
2016-11-06T05:07:58.074Z,4.92
2016-11-06T05:08:58.087Z,4.91
2016-11-06T05:09:58.099Z,4.88
2016-11-06T05:10:58.084Z,4.91
2016-11-06T05:11:58.060Z,5.01
2016-11-06T05:12:58.109Z,5.05
2016-11-06T05:13:58.080Z,5.09
2016-11-06T05:14:58.067Z,5.02
2016-11-06T05:15:58.154Z,5.07
2016-11-06T05:16:58.103Z,5.16
2016-11-06T05:17:58.063Z,5.07
2016-11-06T05:18:58.070Z,5.02
2016-11-06T05:19:58.112Z,5.17
2016-11-06T05:20:58.085Z,5.13
2016-11-06T05:21:58.076Z,5.04
2016-11-06T05:22:58.105Z,5.16
2016-11-06T05:23:58.170Z,5.12
2016-11-06T05:24:58.073Z,5.2
2016-11-06T05:25:58.116Z,5.31
2016-11-06T05:26:58.083Z,5.14
2016-11-06T05:27:58.086Z,5.28
2016-11-06T05:28:58.106Z,5.32
2016-11-06T05:29:58.118Z,5.49
2016-11-06T05:30:58.156Z,5.22
2016-11-06T05:31:58.096Z,5.25
2016-11-06T05:32:58.086Z,5.3
2016-11-06T05:33:58.084Z,5.38
2016-11-06T05:34:58.127Z,5.38
2016-11-06T05:35:58.108Z,5.43
2016-11-06T05:36:58.108Z,5.31
2016-11-06T05:37:58.148Z,5.35
2016-11-06T05:38:58.092Z,5.23
2016-11-06T05:39:58.085Z,5.38
2016-11-06T05:40:58.168Z,5.25
2016-11-06T05:41:58.099Z,5.5
2016-11-06T05:42:58.092Z,5.16
2016-11-06T05:43:58.104Z,5.34
2016-11-06T05:44:58.118Z,5.57
2016-11-06T05:45:58.152Z,5.53
2016-11-06T05:46:58.210Z,5.34
2016-11-06T05:47:58.128Z,5.35
2016-11-06T05:48:58.118Z,5.55
2016-11-06T05:49:58.143Z,5.6
2016-11-06T05:50:58.222Z,5.71
2016-11-06T05:51:58.108Z,5.55
2016-11-06T05:52:58.143Z,5.67
2016-11-06T05:53:58.132Z,5.57
2016-11-06T05:54:58.113Z,5.59
2016-11-06T05:55:58.102Z,5.63
2016-11-06T05:56:58.098Z,5.73
2016-11-06T05:57:58.115Z,5.73
2016-11-06T05:58:58.162Z,5.73
2016-11-06T05:59:58.140Z,5.75
2016-11-06T06:00:58.134Z,5.74
2016-11-06T06:01:58.118Z,5.64
2016-11-06T06:02:58.100Z,5.71
2016-11-06T06:03:58.097Z,5.66
2016-11-06T06:04:58.145Z,5.78
2016-11-06T06:05:58.164Z,5.78
2016-11-06T06:06:58.104Z,5.74
2016-11-06T06:07:58.102Z,5.88
2016-11-06T06:08:58.094Z,5.77
2016-11-06T06:09:59.351Z,5.7
2016-11-06T06:10:59.482Z,5.75
2016-11-06T06:11:58.090Z,5.67
2016-11-06T06:12:58.117Z,5.85
2016-11-06T06:13:58.466Z,5.86
2016-11-06T06:14:58.317Z,5.71
2016-11-06T06:15:58.106Z,5.73
2016-11-06T06:16:58.107Z,5.77
2016-11-06T06:17:58.773Z,5.55
2016-11-06T06:18:59.045Z,5.91
2016-11-06T06:19:58.999Z,5.78
2016-11-06T06:20:58.116Z,5.85
2016-11-06T06:21:58.148Z,5.81
2016-11-06T06:22:58.135Z,5.81
2016-11-06T06:23:58.151Z,5.88
2016-11-06T06:24:58.142Z,5.86
2016-11-06T06:25:58.129Z,6.01
2016-11-06T06:26:58.759Z,5.86
2016-11-06T06:27:58.131Z,6.03
2016-11-06T06:28:58.105Z,6
2016-11-06T06:29:58.151Z,5.91
2016-11-06T06:30:58.157Z,5.93
2016-11-06T06:31:58.119Z,5.91
2016-11-06T06:32:58.170Z,6.01
2016-11-06T06:33:58.182Z,5.93
2016-11-06T06:34:58.182Z,5.98
2016-11-06T06:35:58.134Z,5.95
2016-11-06T06:36:58.146Z,5.96
2016-11-06T06:37:58.134Z,5.89
2016-11-06T06:38:58.168Z,6.01
2016-11-06T06:39:58.148Z,6
2016-11-06T06:40:58.155Z,5.95
2016-11-06T06:41:58.134Z,5.93
2016-11-06T06:42:58.134Z,5.92
2016-11-06T06:43:58.145Z,6.07
2016-11-06T06:44:58.170Z,6.06
2016-11-06T06:45:59.092Z,6
2016-11-06T06:46:58.150Z,6.04
2016-11-06T06:48:00.711Z,6.06
2016-11-06T06:48:58.876Z,5.98
2016-11-06T06:49:58.301Z,6.14
2016-11-06T06:50:58.175Z,6.13
2016-11-06T06:51:58.753Z,6.13
2016-11-06T06:52:58.887Z,6.18
2016-11-06T06:53:58.690Z,6.18
2016-11-06T06:54:58.912Z,6.26
2016-11-06T06:55:58.136Z,6.07
2016-11-06T06:56:58.140Z,6.22
2016-11-06T06:57:58.145Z,6.1
2016-11-06T06:58:58.117Z,6.25
2016-11-06T06:59:58.151Z,6.22
2016-11-06T07:00:58.796Z,6.33
2016-11-06T07:01:58.160Z,6.04
2016-11-06T07:02:58.658Z,6.18
2016-11-06T07:03:58.508Z,6.29
2016-11-06T07:04:58.999Z,6.03
2016-11-06T07:05:58.641Z,6.26
2016-11-06T07:06:58.348Z,6.19
2016-11-06T07:07:58.124Z,6.19
2016-11-06T07:08:58.144Z,6.25
2016-11-06T07:09:58.149Z,6.22
2016-11-06T07:10:58.115Z,6.26
2016-11-06T07:11:58.140Z,6.29
2016-11-06T07:12:58.154Z,6.32
2016-11-06T07:13:58.145Z,6.32
2016-11-06T07:14:58.135Z,6.29
2016-11-06T07:15:58.208Z,6.32
2016-11-06T07:16:58.799Z,6.21
2016-11-06T07:17:58.155Z,6.41
2016-11-06T07:18:58.325Z,6.3
2016-11-06T07:19:58.172Z,6.32
2016-11-06T07:20:58.146Z,6.4
2016-11-06T07:21:58.243Z,6.41
2016-11-06T07:22:58.167Z,6.38
2016-11-06T07:23:58.741Z,6.43
2016-11-06T07:24:58.147Z,6.5
2016-11-06T07:25:58.168Z,6.38
2016-11-06T07:26:58.188Z,6.38
2016-11-06T07:27:58.733Z,6.47
2016-11-06T07:28:58.483Z,6.41
2016-11-06T07:29:58.176Z,6.46
2016-11-06T07:30:58.198Z,6.5
2016-11-06T07:31:58.191Z,6.59
2016-11-06T07:32:58.158Z,6.5
2016-11-06T07:33:58.197Z,6.54
2016-11-06T07:34:58.182Z,6.62
2016-11-06T07:35:58.216Z,6.8
2016-11-06T07:36:58.177Z,6.61
2016-11-06T07:37:59.357Z,6.48
2016-11-06T07:38:58.176Z,6.65
2016-11-06T07:39:58.213Z,6.65
2016-11-06T07:40:58.168Z,6.69
2016-11-06T07:41:58.171Z,6.68
2016-11-06T07:42:58.168Z,6.79
2016-11-06T07:43:58.155Z,6.8
2016-11-06T07:44:58.165Z,6.69
2016-11-06T07:45:58.159Z,6.8
2016-11-06T07:46:58.165Z,6.73
2016-11-06T07:47:58.191Z,6.8
2016-11-06T07:48:58.150Z,6.79
2016-11-06T07:49:58.210Z,6.81
2016-11-06T07:50:58.176Z,6.83
2016-11-06T07:51:58.174Z,6.8
2016-11-06T07:52:58.172Z,6.77
2016-11-06T07:53:58.190Z,6.86
2016-11-06T07:54:58.200Z,6.77
2016-11-06T07:55:58.206Z,6.8
2016-11-06T07:56:58.178Z,6.81
2016-11-06T07:57:58.179Z,6.83
2016-11-06T07:58:58.185Z,6.76
2016-11-06T07:59:58.230Z,6.76
2016-11-06T08:00:58.187Z,6.73
2016-11-06T08:01:58.178Z,6.89
2016-11-06T08:02:58.210Z,6.91
2016-11-06T08:03:58.232Z,6.91
2016-11-06T08:04:58.228Z,6.94
2016-11-06T08:05:58.223Z,6.91
2016-11-06T08:06:58.216Z,6.91
2016-11-06T08:07:58.188Z,6.97
2016-11-06T08:08:58.178Z,6.99
2016-11-06T08:09:58.171Z,6.97
2016-11-06T08:10:58.208Z,7.01
2016-11-06T08:11:58.192Z,7.05
2016-11-06T08:12:58.181Z,7.2
2016-11-06T08:13:58.208Z,6.99
2016-11-06T08:14:58.189Z,7.13
2016-11-06T08:15:58.194Z,7.13
2016-11-06T08:16:58.194Z,7.01
2016-11-06T08:17:58.214Z,6.95
2016-11-06T08:18:58.211Z,7.08
2016-11-06T08:19:58.238Z,7.04
2016-11-06T08:20:58.218Z,6.99
2016-11-06T08:21:58.191Z,6.99
2016-11-06T08:22:58.188Z,6.94
2016-11-06T08:23:58.176Z,6.97
2016-11-06T08:24:58.189Z,6.89
2016-11-06T08:25:58.197Z,7.08
2016-11-06T08:26:58.201Z,7.07
2016-11-06T08:27:58.228Z,6.95
2016-11-06T08:28:58.188Z,6.95
2016-11-06T08:29:58.224Z,6.98
2016-11-06T08:30:58.196Z,6.99
2016-11-06T08:31:58.221Z,7.05
2016-11-06T08:32:58.213Z,7.05
2016-11-06T08:33:58.219Z,7.01
2016-11-06T08:34:58.252Z,7.02
2016-11-06T08:35:58.221Z,7.07
2016-11-06T08:36:58.230Z,7.08
2016-11-06T08:37:58.207Z,7.19
2016-11-06T08:38:58.225Z,7.2
2016-11-06T08:39:58.201Z,7.12
2016-11-06T08:40:58.249Z,7.24
2016-11-06T08:41:58.208Z,7.23
2016-11-06T08:42:58.317Z,7.31
2016-11-06T08:43:58.227Z,7.44
2016-11-06T08:44:58.200Z,7.52
2016-11-06T08:45:58.206Z,7.58
2016-11-06T08:46:58.225Z,7.53
2016-11-06T08:47:58.218Z,7.55
2016-11-06T08:48:58.213Z,7.53
2016-11-06T08:49:58.249Z,7.6
2016-11-06T08:50:58.246Z,7.62
2016-11-06T08:51:58.379Z,7.6
2016-11-06T08:52:58.235Z,7.6
2016-11-06T08:53:58.227Z,7.69
2016-11-06T08:54:58.243Z,7.71
2016-11-06T08:55:58.226Z,7.78
2016-11-06T08:56:58.245Z,7.78
2016-11-06T08:57:58.242Z,7.79
2016-11-06T08:58:58.207Z,7.69
2016-11-06T08:59:58.230Z,7.69
2016-11-06T09:00:58.273Z,7.75
2016-11-06T09:01:58.229Z,7.66
2016-11-06T09:02:58.250Z,7.71
2016-11-06T09:03:58.252Z,7.82
2016-11-06T09:04:58.298Z,7.74
2016-11-06T09:05:58.271Z,7.9
2016-11-06T09:06:58.291Z,7.94
2016-11-06T09:07:58.242Z,7.87
2016-11-06T09:08:58.226Z,7.94
2016-11-06T09:09:58.313Z,8.02
2016-11-06T09:10:58.230Z,8.14
2016-11-06T09:11:58.221Z,7.99
2016-11-06T09:12:58.242Z,8.07
2016-11-06T09:13:58.224Z,8.14
2016-11-06T09:14:58.232Z,8.14
2016-11-06T09:15:58.234Z,8.17
2016-11-06T09:16:58.224Z,8.17
2016-11-06T09:17:58.266Z,8.04
2016-11-06T09:18:58.256Z,8.22
2016-11-06T09:19:58.279Z,8.21
2016-11-06T09:20:58.245Z,8.14
2016-11-06T09:21:58.215Z,8.25
2016-11-06T09:22:58.236Z,8.17
2016-11-06T09:23:58.234Z,8.25
2016-11-06T09:24:58.239Z,8.32
2016-11-06T09:25:58.256Z,8.3
2016-11-06T09:26:58.238Z,8.25
2016-11-06T09:27:58.239Z,8.3
2016-11-06T09:28:58.288Z,8.33
2016-11-06T09:29:58.287Z,8.32
2016-11-06T09:30:58.295Z,8.29
2016-11-06T09:31:58.282Z,8.33
2016-11-06T09:32:58.246Z,8.4
2016-11-06T09:33:58.249Z,8.33
2016-11-06T09:34:58.316Z,8.36
2016-11-06T09:35:58.666Z,8.42
2016-11-06T09:36:58.305Z,8.45
2016-11-06T09:37:58.273Z,8.4
2016-11-06T09:38:58.433Z,8.53
2016-11-06T09:39:58.313Z,8.4
2016-11-06T09:40:58.284Z,8.57
2016-11-06T09:41:59.298Z,8.47
2016-11-06T09:42:58.434Z,8.47
2016-11-06T09:43:58.412Z,8.47
2016-11-06T09:44:58.405Z,8.4
2016-11-06T09:45:58.255Z,8.5
2016-11-06T09:46:58.260Z,8.55
2016-11-06T09:47:58.264Z,8.66
2016-11-06T09:48:58.460Z,8.57
2016-11-06T09:49:58.299Z,8.63
2016-11-06T09:50:58.279Z,8.54
2016-11-06T09:51:58.496Z,8.63
2016-11-06T09:52:58.261Z,8.73
2016-11-06T09:53:58.448Z,8.81
2016-11-06T09:54:58.562Z,8.73
2016-11-06T09:55:58.295Z,8.83
2016-11-06T09:56:58.253Z,8.83
2016-11-06T09:57:58.655Z,8.81
2016-11-06T09:58:58.354Z,8.76
2016-11-06T09:59:58.335Z,8.76
2016-11-06T10:00:58.274Z,8.93
2016-11-06T10:01:58.298Z,8.9
2016-11-06T10:02:58.295Z,8.79
2016-11-06T10:03:58.303Z,8.87
2016-11-06T10:04:58.337Z,8.78
2016-11-06T10:05:58.502Z,8.72
2016-11-06T10:06:59.401Z,8.81
2016-11-06T10:07:58.279Z,8.71
2016-11-06T10:08:58.303Z,8.69
2016-11-06T10:09:58.401Z,8.84
2016-11-06T10:10:58.281Z,8.88
2016-11-06T10:11:58.921Z,8.9
2016-11-06T10:12:58.295Z,8.83
2016-11-06T10:13:58.265Z,8.75
2016-11-06T10:14:58.292Z,8.78
2016-11-06T10:15:58.285Z,8.83
2016-11-06T10:16:58.289Z,8.86
2016-11-06T10:17:58.313Z,8.87
2016-11-06T10:18:58.288Z,8.96
2016-11-06T10:19:58.298Z,9.01
2016-11-06T10:20:58.272Z,9.25
2016-11-06T10:21:59.299Z,9.23
2016-11-06T10:22:58.576Z,9.25
2016-11-06T10:23:58.304Z,9.25
2016-11-06T10:24:58.513Z,9.28
2016-11-06T10:25:58.712Z,9.45
2016-11-06T10:26:58.299Z,9.46
2016-11-06T10:27:58.470Z,9.52
2016-11-06T10:28:58.438Z,9.57
2016-11-06T10:29:58.296Z,9.52
2016-11-06T10:30:58.314Z,9.6
2016-11-06T10:31:58.478Z,9.64
2016-11-06T10:32:58.276Z,9.61
2016-11-06T10:33:58.384Z,9.63
2016-11-06T10:34:58.534Z,9.71
2016-11-06T10:35:58.321Z,9.68
2016-11-06T10:36:58.497Z,9.73
2016-11-06T10:37:58.307Z,9.79
2016-11-06T10:38:58.474Z,9.85
2016-11-06T10:39:58.713Z,9.93
2016-11-06T10:40:58.317Z,10.03
2016-11-06T10:41:58.376Z,9.94
2016-11-06T10:42:58.720Z,10.15
2016-11-06T10:43:58.370Z,10.19
2016-11-06T10:44:58.346Z,10.21
2016-11-06T10:45:58.321Z,10.36
2016-11-06T10:46:58.435Z,10.34
2016-11-06T10:47:58.336Z,10.39
2016-11-06T10:48:58.365Z,10.36
2016-11-06T10:49:58.372Z,10.14
2016-11-06T10:50:58.315Z,10.17
2016-11-06T10:51:58.378Z,10.14
2016-11-06T10:52:58.426Z,9.96
2016-11-06T10:53:58.391Z,10.07
2016-11-06T10:54:58.317Z,9.96
2016-11-06T10:55:58.369Z,9.89
2016-11-06T10:56:58.350Z,9.76
2016-11-06T10:57:58.347Z,9.81
2016-11-06T10:58:58.318Z,9.93
2016-11-06T10:59:58.337Z,9.83
2016-11-06T11:00:58.331Z,9.75
2016-11-06T11:01:58.470Z,9.78
2016-11-06T11:02:58.346Z,9.78
2016-11-06T11:03:58.372Z,9.88
2016-11-06T11:04:58.549Z,9.93
2016-11-06T11:05:58.685Z,9.81
2016-11-06T11:06:58.473Z,9.83
2016-11-06T11:07:58.979Z,9.86
2016-11-06T11:08:58.373Z,9.93
2016-11-06T11:09:58.643Z,9.93
2016-11-06T11:10:59.549Z,9.91
2016-11-06T11:11:58.480Z,9.93
2016-11-06T11:12:58.611Z,9.83
2016-11-06T11:13:59.098Z,9.66
2016-11-06T11:14:58.428Z,9.78
2016-11-06T11:15:58.412Z,9.76
2016-11-06T11:16:58.615Z,9.89
2016-11-06T11:17:58.527Z,9.75
2016-11-06T11:18:59.255Z,9.88
2016-11-06T11:19:58.529Z,9.78
2016-11-06T11:20:58.395Z,9.67
2016-11-06T11:21:58.364Z,9.68
2016-11-06T11:22:58.384Z,9.64
2016-11-06T11:23:58.659Z,9.67
2016-11-06T11:24:58.697Z,9.58
2016-11-06T11:25:58.366Z,9.5
2016-11-06T11:26:59.147Z,9.58
2016-11-06T11:27:58.389Z,9.57
2016-11-06T11:28:58.351Z,9.5
2016-11-06T11:29:58.377Z,9.4
2016-11-06T11:30:58.434Z,9.43
2016-11-06T11:31:58.389Z,9.31
2016-11-06T11:32:58.481Z,9.32
2016-11-06T11:33:59.386Z,9.34
2016-11-06T11:34:58.577Z,9.45
2016-11-06T11:35:58.364Z,9.34
2016-11-06T11:36:58.426Z,9.35
2016-11-06T11:37:58.372Z,9.34
2016-11-06T11:38:58.892Z,9.38
2016-11-06T11:39:58.659Z,9.39
2016-11-06T11:40:58.352Z,9.42
2016-11-06T11:41:58.560Z,9.42
2016-11-06T11:42:58.382Z,9.4
2016-11-06T11:43:58.415Z,9.58
2016-11-06T11:44:58.947Z,9.56
2016-11-06T11:45:59.704Z,9.52
2016-11-06T11:46:59.372Z,9.58
2016-11-06T11:47:58.381Z,9.45
2016-11-06T11:48:58.433Z,9.52
2016-11-06T11:49:59.200Z,9.52
2016-11-06T11:50:59.296Z,9.52
2016-11-06T11:51:58.434Z,9.4
2016-11-06T11:52:58.738Z,9.48
2016-11-06T11:53:59.667Z,9.53
2016-11-06T11:54:58.365Z,9.58
2016-11-06T11:55:58.777Z,9.63
2016-11-06T11:56:59.516Z,9.6
2016-11-06T11:57:58.983Z,9.52
2016-11-06T11:58:58.375Z,9.53
2016-11-06T11:59:58.642Z,9.71
2016-11-06T12:00:58.377Z,9.7
2016-11-06T12:01:58.732Z,9.58
2016-11-06T12:02:58.399Z,9.56
2016-11-06T12:03:59.305Z,9.53
2016-11-06T12:04:58.448Z,9.64
2016-11-06T12:05:58.572Z,9.76
2016-11-06T12:06:59.016Z,9.66
2016-11-06T12:07:58.486Z,9.73
2016-11-06T12:08:58.658Z,9.76
2016-11-06T12:09:58.393Z,9.78
2016-11-06T12:10:58.381Z,9.88
2016-11-06T12:11:58.434Z,9.96
2016-11-06T12:12:58.659Z,9.88
2016-11-06T12:13:58.387Z,10.06
2016-11-06T12:14:59.170Z,10.01
2016-11-06T12:15:58.464Z,10
2016-11-06T12:16:58.482Z,10
2016-11-06T12:17:58.451Z,10.09
2016-11-06T12:18:58.850Z,9.97
2016-11-06T12:19:58.720Z,9.94
2016-11-06T12:20:58.396Z,9.86
2016-11-06T12:21:58.717Z,9.97
2016-11-06T12:22:58.400Z,10.03
2016-11-06T12:23:59.205Z,10
2016-11-06T12:24:58.534Z,9.97
2016-11-06T12:25:59.081Z,10
2016-11-06T12:26:58.392Z,10.01
2016-11-06T12:27:58.399Z,9.96
2016-11-06T12:28:58.399Z,9.96
2016-11-06T12:29:58.633Z,9.97
2016-11-06T12:30:58.451Z,9.78
2016-11-06T12:31:58.474Z,9.78
2016-11-06T12:32:59.498Z,9.82
2016-11-06T12:33:59.564Z,9.86
2016-11-06T12:34:58.695Z,9.93
2016-11-06T12:35:58.383Z,9.85
2016-11-06T12:36:58.472Z,9.82
2016-11-06T12:37:58.448Z,9.86
2016-11-06T12:38:58.435Z,9.91
2016-11-06T12:39:58.429Z,9.88
2016-11-06T12:40:58.434Z,9.88
2016-11-06T12:41:59.359Z,9.96
2016-11-06T12:42:59.253Z,9.88
2016-11-06T12:43:58.499Z,9.86
2016-11-06T12:44:58.610Z,9.78
2016-11-06T12:45:59.000Z,9.68
2016-11-06T12:46:58.578Z,9.82
2016-11-06T12:47:58.741Z,9.81
2016-11-06T12:48:58.477Z,9.79
2016-11-06T12:49:58.476Z,9.68
2016-11-06T12:50:58.470Z,9.76
2016-11-06T12:51:58.486Z,9.63
2016-11-06T12:52:58.444Z,9.76
2016-11-06T12:53:58.428Z,9.71
2016-11-06T12:54:58.476Z,9.73
2016-11-06T12:55:58.448Z,9.78
2016-11-06T12:56:58.461Z,9.75
2016-11-06T12:57:58.407Z,9.68
2016-11-06T12:58:58.419Z,9.79
2016-11-06T12:59:59.164Z,9.46
2016-11-06T13:00:58.428Z,9.6
2016-11-06T13:01:58.520Z,9.58
2016-11-06T13:02:58.471Z,9.56
2016-11-06T13:03:58.880Z,9.6
2016-11-06T13:04:59.048Z,9.64
2016-11-06T13:05:58.455Z,9.58
2016-11-06T13:06:59.557Z,9.58
2016-11-06T13:07:58.444Z,9.58
2016-11-06T13:08:59.577Z,9.6
2016-11-06T13:09:58.450Z,9.57
2016-11-06T13:10:58.505Z,9.53
2016-11-06T13:11:58.492Z,9.71
2016-11-06T13:12:58.449Z,9.58
2016-11-06T13:13:58.477Z,9.52
2016-11-06T13:14:58.460Z,9.7
2016-11-06T13:15:58.930Z,9.58
2016-11-06T13:16:59.580Z,9.49
2016-11-06T13:17:58.466Z,9.5
2016-11-06T13:18:58.541Z,9.63
2016-11-06T13:19:59.372Z,9.5
2016-11-06T13:21:07.093Z,9.63